sensor_id;sensor_type;location;lat;lon;timestamp;P1;durP1;ratioP1;P2;durP2;ratioP2
3831;SDS011;12460;42.662;23.288;2023-03-01T00:03:14;5.77;;;5.20;;
3831;SDS011;12460;42.662;23.288;2023-03-01T00:18:18;7.10;;;5.33;;
3831;SDS011;12460;42.662;23.288;2023-03-01T00:33:23;5.13;;;4.63;;
3831;SDS011;12460;42.662;23.288;2023-03-01T00:48:27;4.60;;;4.20;;
3831;SDS011;12460;42.662;23.288;2023-03-01T01:03:32;4.60;;;4.20;;
3831;SDS011;12460;42.662;23.288;2023-03-01T01:18:35;4.00;;;3.70;;
3831;SDS011;12460;42.662;23.288;2023-03-01T01:33:42;3.40;;;3.20;;
3831;SDS011;12460;42.662;23.288;2023-03-01T01:48:52;3.53;;;3.23;;
3831;SDS011;12460;42.662;23.288;2023-03-01T02:04:00;3.13;;;2.93;;
3831;SDS011;12460;42.662;23.288;2023-03-01T02:19:04;2.57;;;2.47;;
3831;SDS011;12460;42.662;23.288;2023-03-01T02:34:15;2.70;;;2.50;;
3831;SDS011;12460;42.662;23.288;2023-03-01T02:49:26;3.33;;;3.10;;
3831;SDS011;12460;42.662;23.288;2023-03-01T03:04:32;4.17;;;3.80;;
3831;SDS011;12460;42.662;23.288;2023-03-01T03:19:37;4.80;;;4.40;;
3831;SDS011;12460;42.662;23.288;2023-03-01T03:34:42;5.37;;;4.87;;
3831;SDS011;12460;42.662;23.288;2023-03-01T03:49:46;6.70;;;5.93;;
3831;SDS011;12460;42.662;23.288;2023-03-01T04:04:50;6.13;;;4.80;;
3831;SDS011;12460;42.662;23.288;2023-03-01T04:19:55;4.03;;;3.63;;
3831;SDS011;12460;42.662;23.288;2023-03-01T04:35:00;4.53;;;4.13;;
3831;SDS011;12460;42.662;23.288;2023-03-01T04:50:05;5.03;;;4.53;;
3831;SDS011;12460;42.662;23.288;2023-03-01T05:05:12;5.97;;;5.10;;
3831;SDS011;12460;42.662;23.288;2023-03-01T05:20:17;4.87;;;4.37;;
3831;SDS011;12460;42.662;23.288;2023-03-01T05:35:25;5.77;;;4.80;;
3831;SDS011;12460;42.662;23.288;2023-03-01T05:50:32;4.90;;;4.40;;
3831;SDS011;12460;42.662;23.288;2023-03-01T06:05:40;4.20;;;3.80;;
3831;SDS011;12460;42.662;23.288;2023-03-01T06:20:45;4.20;;;3.60;;
3831;SDS011;12460;42.662;23.288;2023-03-01T06:35:57;3.37;;;3.17;;
3831;SDS011;12460;42.662;23.288;2023-03-01T06:51:03;4.90;;;3.90;;
3831;SDS011;12460;42.662;23.288;2023-03-01T07:06:07;3.50;;;3.20;;
3831;SDS011;12460;42.662;23.288;2023-03-01T07:21:12;3.60;;;3.30;;
3831;SDS011;12460;42.662;23.288;2023-03-01T07:36:18;4.33;;;2.87;;
3831;SDS011;12460;42.662;23.288;2023-03-01T07:51:23;3.83;;;3.43;;
3831;SDS011;12460;42.662;23.288;2023-03-01T08:06:28;5.00;;;4.23;;
3831;SDS011;12460;42.662;23.288;2023-03-01T08:21:33;3.63;;;3.33;;
3831;SDS011;12460;42.662;23.288;2023-03-01T08:36:41;8.27;;;7.07;;
3831;SDS011;12460;42.662;23.288;2023-03-01T08:51:48;4.50;;;3.60;;
3831;SDS011;12460;42.662;23.288;2023-03-01T09:06:53;4.40;;;3.97;;
3831;SDS011;12460;42.662;23.288;2023-03-01T09:21:58;4.50;;;4.10;;
3831;SDS011;12460;42.662;23.288;2023-03-01T09:37:02;4.33;;;3.97;;
3831;SDS011;12460;42.662;23.288;2023-03-01T09:52:20;6.20;;;3.30;;
3831;SDS011;12460;42.662;23.288;2023-03-01T10:07:45;3.70;;;3.40;;
3831;SDS011;12460;42.662;23.288;2023-03-01T10:23:03;4.80;;;3.70;;
3831;SDS011;12460;42.662;23.288;2023-03-01T10:38:09;4.60;;;3.77;;
3831;SDS011;12460;42.662;23.288;2023-03-01T10:53:24;5.90;;;3.70;;
3831;SDS011;12460;42.662;23.288;2023-03-01T11:08:34;4.03;;;3.73;;
3831;SDS011;12460;42.662;23.288;2023-03-01T11:23:43;4.80;;;4.07;;
3831;SDS011;12460;42.662;23.288;2023-03-01T11:38:49;4.40;;;4.00;;
3831;SDS011;12460;42.662;23.288;2023-03-01T11:53:58;5.07;;;4.50;;
3831;SDS011;12460;42.662;23.288;2023-03-01T12:24:35;6.80;;;5.30;;
3831;SDS011;12460;42.662;23.288;2023-03-01T12:54:55;5.33;;;4.67;;
3831;SDS011;12460;42.662;23.288;2023-03-01T13:10:16;4.90;;;4.40;;
3831;SDS011;12460;42.662;23.288;2023-03-01T13:25:33;4.60;;;4.20;;
3831;SDS011;12460;42.662;23.288;2023-03-01T13:56:00;5.07;;;4.57;;
3831;SDS011;12460;42.662;23.288;2023-03-01T14:26:21;4.53;;;4.03;;
3831;SDS011;12460;42.662;23.288;2023-03-01T14:41:27;7.17;;;4.90;;
3831;SDS011;12460;42.662;23.288;2023-03-01T14:56:42;5.30;;;4.77;;
3831;SDS011;12460;42.662;23.288;2023-03-01T15:11:49;4.70;;;4.20;;
3831;SDS011;12460;42.662;23.288;2023-03-01T15:26:57;6.30;;;4.33;;
3831;SDS011;12460;42.662;23.288;2023-03-01T15:42:11;13.47;;;5.20;;
3831;SDS011;12460;42.662;23.288;2023-03-01T15:57:38;6.73;;;4.60;;
3831;SDS011;12460;42.662;23.288;2023-03-01T16:12:42;6.00;;;5.40;;
3831;SDS011;12460;42.662;23.288;2023-03-01T16:27:48;5.83;;;4.47;;
3831;SDS011;12460;42.662;23.288;2023-03-01T16:42:55;5.20;;;4.70;;
3831;SDS011;12460;42.662;23.288;2023-03-01T16:58:03;5.80;;;4.60;;
3831;SDS011;12460;42.662;23.288;2023-03-01T17:13:09;5.33;;;4.00;;
3831;SDS011;12460;42.662;23.288;2023-03-01T17:28:14;5.90;;;3.90;;
3831;SDS011;12460;42.662;23.288;2023-03-01T17:43:19;5.20;;;4.30;;
3831;SDS011;12460;42.662;23.288;2023-03-01T17:58:23;7.53;;;4.90;;
3831;SDS011;12460;42.662;23.288;2023-03-01T18:13:28;7.83;;;5.70;;
3831;SDS011;12460;42.662;23.288;2023-03-01T18:28:32;9.90;;;6.60;;
3831;SDS011;12460;42.662;23.288;2023-03-01T18:43:36;9.23;;;6.73;;
3831;SDS011;12460;42.662;23.288;2023-03-01T18:58:42;10.60;;;6.50;;
3831;SDS011;12460;42.662;23.288;2023-03-01T19:13:46;11.10;;;7.47;;
3831;SDS011;12460;42.662;23.288;2023-03-01T19:28:54;8.13;;;5.93;;
3831;SDS011;12460;42.662;23.288;2023-03-01T19:43:59;12.20;;;7.93;;
3831;SDS011;12460;42.662;23.288;2023-03-01T19:59:08;9.77;;;7.17;;
3831;SDS011;12460;42.662;23.288;2023-03-01T20:14:13;10.43;;;7.07;;
3831;SDS011;12460;42.662;23.288;2023-03-01T20:29:17;11.50;;;7.60;;
3831;SDS011;12460;42.662;23.288;2023-03-01T20:44:22;11.57;;;7.50;;
3831;SDS011;12460;42.662;23.288;2023-03-01T20:59:27;10.73;;;7.07;;
3831;SDS011;12460;42.662;23.288;2023-03-01T21:14:31;10.73;;;7.13;;
3831;SDS011;12460;42.662;23.288;2023-03-01T21:29:45;11.67;;;8.00;;
3831;SDS011;12460;42.662;23.288;2023-03-01T21:44:49;10.33;;;7.57;;
3831;SDS011;12460;42.662;23.288;2023-03-01T21:59:54;12.00;;;7.53;;
3831;SDS011;12460;42.662;23.288;2023-03-01T22:15:00;11.80;;;7.30;;
3831;SDS011;12460;42.662;23.288;2023-03-01T22:30:05;8.00;;;6.13;;
3831;SDS011;12460;42.662;23.288;2023-03-01T22:45:12;6.90;;;5.33;;
3831;SDS011;12460;42.662;23.288;2023-03-01T23:00:16;6.90;;;5.07;;
3831;SDS011;12460;42.662;23.288;2023-03-01T23:15:20;7.43;;;5.20;;
3831;SDS011;12460;42.662;23.288;2023-03-01T23:30:24;6.57;;;4.83;;
3831;SDS011;12460;42.662;23.288;2023-03-01T23:45:27;5.47;;;4.33;;
